Cedar Point, North Carolina
Current Conditions -  °F | °C
As of 1:11 PM on Wednesday 26 Nov 2014 (Local Time) from KNJM Reporting Station
Light Rain Light Rain  
Wind Chill: 43°   Ceiling: 1000
Heat Index: 48°   Visibility: 10mi
Dew Point: 46°   Wind: 12mph
Humidity: 93%   Direction: 340°NNW
Pressure: 29.79"   Gusts: NA
Location:  34.7017°N, 77.1399°W
Report Text: KNJM 261811Z 34010KT 10SM -RA BKN010 BKN044 OVC100 09/08 A2979 RMK AO2 P0000 T00890078
Loading
Personal Weather Stations






























Interactive Weather Map New forecast layout! Learn more

10-Day Weather Forecast

Advertisements
Track Severe Weather on mobile